sensor_id;sensor_type;location;lat;lon;timestamp;temperature;humidity
16402;DHT22;8310;44.626;11.176;2023-07-30T00:00:19;27.70;47.90
16402;DHT22;8310;44.626;11.176;2023-07-30T00:02:47;27.70;48.00
16402;DHT22;8310;44.626;11.176;2023-07-30T00:05:14;27.70;48.10
16402;DHT22;8310;44.626;11.176;2023-07-30T00:07:41;27.60;48.20
16402;DHT22;8310;44.626;11.176;2023-07-30T00:10:09;27.70;48.20
16402;DHT22;8310;44.626;11.176;2023-07-30T00:12:37;27.70;48.30
16402;DHT22;8310;44.626;11.176;2023-07-30T00:15:04;27.60;48.30
16402;DHT22;8310;44.626;11.176;2023-07-30T00:17:33;27.70;48.40
16402;DHT22;8310;44.626;11.176;2023-07-30T00:20:04;27.70;48.40
16402;DHT22;8310;44.626;11.176;2023-07-30T00:22:32;27.70;48.40
16402;DHT22;8310;44.626;11.176;2023-07-30T00:24:59;27.70;48.50
16402;DHT22;8310;44.626;11.176;2023-07-30T00:27:26;27.70;48.50
16402;DHT22;8310;44.626;11.176;2023-07-30T00:29:53;27.70;49.10
16402;DHT22;8310;44.626;11.176;2023-07-30T00:32:21;27.70;48.50
16402;DHT22;8310;44.626;11.176;2023-07-30T00:34:50;27.70;48.40
16402;DHT22;8310;44.626;11.176;2023-07-30T00:37:17;27.70;48.40
16402;DHT22;8310;44.626;11.176;2023-07-30T00:39:44;27.60;48.30
16402;DHT22;8310;44.626;11.176;2023-07-30T00:42:11;27.60;48.40
16402;DHT22;8310;44.626;11.176;2023-07-30T00:44:40;27.60;48.50
16402;DHT22;8310;44.626;11.176;2023-07-30T00:47:07;27.60;48.60
16402;DHT22;8310;44.626;11.176;2023-07-30T00:49:35;27.60;48.60
16402;DHT22;8310;44.626;11.176;2023-07-30T00:52:06;27.70;48.70
16402;DHT22;8310;44.626;11.176;2023-07-30T00:54:33;27.70;48.70
16402;DHT22;8310;44.626;11.176;2023-07-30T00:57:01;27.70;48.70
16402;DHT22;8310;44.626;11.176;2023-07-30T00:59:28;27.70;48.70
16402;DHT22;8310;44.626;11.176;2023-07-30T01:01:56;27.70;48.70
16402;DHT22;8310;44.626;11.176;2023-07-30T01:04:24;27.70;48.80
16402;DHT22;8310;44.626;11.176;2023-07-30T01:06:51;27.70;48.80
16402;DHT22;8310;44.626;11.176;2023-07-30T01:09:21;27.70;48.80
16402;DHT22;8310;44.626;11.176;2023-07-30T01:11:49;27.70;48.80
16402;DHT22;8310;44.626;11.176;2023-07-30T01:14:16;27.70;48.90
16402;DHT22;8310;44.626;11.176;2023-07-30T01:16:45;27.70;48.90
16402;DHT22;8310;44.626;11.176;2023-07-30T01:19:12;27.70;49.00
16402;DHT22;8310;44.626;11.176;2023-07-30T01:21:41;27.70;49.00
16402;DHT22;8310;44.626;11.176;2023-07-30T01:24:09;27.80;49.10
16402;DHT22;8310;44.626;11.176;2023-07-30T01:26:37;27.80;49.10
16402;DHT22;8310;44.626;11.176;2023-07-30T01:29:06;27.80;49.10
16402;DHT22;8310;44.626;11.176;2023-07-30T01:31:36;27.80;49.10
16402;DHT22;8310;44.626;11.176;2023-07-30T01:34:04;27.80;49.10
16402;DHT22;8310;44.626;11.176;2023-07-30T01:36:32;27.80;49.10
16402;DHT22;8310;44.626;11.176;2023-07-30T01:39:01;27.90;49.20
16402;DHT22;8310;44.626;11.176;2023-07-30T01:41:29;27.80;49.10
16402;DHT22;8310;44.626;11.176;2023-07-30T01:43:56;27.80;49.10
16402;DHT22;8310;44.626;11.176;2023-07-30T01:46:24;27.80;49.10
16402;DHT22;8310;44.626;11.176;2023-07-30T01:48:51;27.90;49.20
16402;DHT22;8310;44.626;11.176;2023-07-30T01:51:19;27.80;49.10
16402;DHT22;8310;44.626;11.176;2023-07-30T01:53:46;27.90;49.20
16402;DHT22;8310;44.626;11.176;2023-07-30T01:56:15;27.80;49.20
16402;DHT22;8310;44.626;11.176;2023-07-30T01:58:42;27.80;49.20
16402;DHT22;8310;44.626;11.176;2023-07-30T02:01:10;27.80;49.20
16402;DHT22;8310;44.626;11.176;2023-07-30T02:03:38;27.80;49.20
16402;DHT22;8310;44.626;11.176;2023-07-30T02:06:06;27.70;49.10
16402;DHT22;8310;44.626;11.176;2023-07-30T02:08:33;27.70;49.10
16402;DHT22;8310;44.626;11.176;2023-07-30T02:11:00;27.70;49.20
16402;DHT22;8310;44.626;11.176;2023-07-30T02:13:29;27.70;49.20
16402;DHT22;8310;44.626;11.176;2023-07-30T02:15:56;27.60;49.10
16402;DHT22;8310;44.626;11.176;2023-07-30T02:18:24;27.60;49.10
16402;DHT22;8310;44.626;11.176;2023-07-30T02:20:51;27.50;49.10
16402;DHT22;8310;44.626;11.176;2023-07-30T02:23:18;27.50;49.20
16402;DHT22;8310;44.626;11.176;2023-07-30T02:25:46;27.50;49.20
16402;DHT22;8310;44.626;11.176;2023-07-30T02:28:13;27.40;49.20
16402;DHT22;8310;44.626;11.176;2023-07-30T02:30:42;27.40;49.20
16402;DHT22;8310;44.626;11.176;2023-07-30T02:33:10;27.40;49.30
16402;DHT22;8310;44.626;11.176;2023-07-30T02:35:37;27.30;49.30
16402;DHT22;8310;44.626;11.176;2023-07-30T02:38:04;27.30;49.20
16402;DHT22;8310;44.626;11.176;2023-07-30T02:40:31;27.20;49.20
16402;DHT22;8310;44.626;11.176;2023-07-30T02:42:59;27.20;49.20
16402;DHT22;8310;44.626;11.176;2023-07-30T02:45:26;27.20;49.20
16402;DHT22;8310;44.626;11.176;2023-07-30T02:47:56;27.10;49.80
16402;DHT22;8310;44.626;11.176;2023-07-30T02:50:23;27.10;49.20
16402;DHT22;8310;44.626;11.176;2023-07-30T02:52:50;27.00;49.30
16402;DHT22;8310;44.626;11.176;2023-07-30T02:55:18;27.00;49.30
16402;DHT22;8310;44.626;11.176;2023-07-30T02:57:45;27.00;49.30
16402;DHT22;8310;44.626;11.176;2023-07-30T03:00:14;26.90;49.20
16402;DHT22;8310;44.626;11.176;2023-07-30T03:02:41;26.80;49.10
16402;DHT22;8310;44.626;11.176;2023-07-30T03:05:10;26.70;49.10
16402;DHT22;8310;44.626;11.176;2023-07-30T03:07:37;26.60;49.10
16402;DHT22;8310;44.626;11.176;2023-07-30T03:10:05;26.50;49.10
16402;DHT22;8310;44.626;11.176;2023-07-30T03:12:32;26.50;49.10
16402;DHT22;8310;44.626;11.176;2023-07-30T03:14:59;26.30;48.90
16402;DHT22;8310;44.626;11.176;2023-07-30T03:17:26;26.20;48.90
16402;DHT22;8310;44.626;11.176;2023-07-30T03:19:53;26.10;48.90
16402;DHT22;8310;44.626;11.176;2023-07-30T03:22:22;26.00;48.90
16402;DHT22;8310;44.626;11.176;2023-07-30T03:24:49;25.90;48.90
16402;DHT22;8310;44.626;11.176;2023-07-30T03:27:17;25.80;49.10
16402;DHT22;8310;44.626;11.176;2023-07-30T03:29:44;25.80;49.20
16402;DHT22;8310;44.626;11.176;2023-07-30T03:32:12;25.80;49.20
16402;DHT22;8310;44.626;11.176;2023-07-30T03:34:39;25.70;49.30
16402;DHT22;8310;44.626;11.176;2023-07-30T03:37:07;25.70;49.30
16402;DHT22;8310;44.626;11.176;2023-07-30T03:39:36;25.70;49.40
16402;DHT22;8310;44.626;11.176;2023-07-30T03:42:03;25.60;49.30
16402;DHT22;8310;44.626;11.176;2023-07-30T03:44:30;25.60;49.30
16402;DHT22;8310;44.626;11.176;2023-07-30T03:46:58;25.60;49.30
16402;DHT22;8310;44.626;11.176;2023-07-30T03:49:26;25.70;49.40
16402;DHT22;8310;44.626;11.176;2023-07-30T03:51:53;25.70;49.40
16402;DHT22;8310;44.626;11.176;2023-07-30T03:54:21;25.70;49.40
16402;DHT22;8310;44.626;11.176;2023-07-30T03:56:50;25.70;49.40
16402;DHT22;8310;44.626;11.176;2023-07-30T03:59:18;25.70;49.40
16402;DHT22;8310;44.626;11.176;2023-07-30T04:01:45;25.80;49.50
16402;DHT22;8310;44.626;11.176;2023-07-30T04:04:13;25.70;49.40
16402;DHT22;8310;44.626;11.176;2023-07-30T04:06:41;25.70;49.40
16402;DHT22;8310;44.626;11.176;2023-07-30T04:09:08;25.70;49.40
16402;DHT22;8310;44.626;11.176;2023-07-30T04:11:35;25.70;49.50
16402;DHT22;8310;44.626;11.176;2023-07-30T04:14:04;25.70;49.50
16402;DHT22;8310;44.626;11.176;2023-07-30T04:16:33;25.70;49.50
16402;DHT22;8310;44.626;11.176;2023-07-30T04:19:00;25.60;49.50
16402;DHT22;8310;44.626;11.176;2023-07-30T04:21:27;25.60;49.50
16402;DHT22;8310;44.626;11.176;2023-07-30T04:23:55;25.60;49.60
16402;DHT22;8310;44.626;11.176;2023-07-30T04:26:22;25.60;49.60
16402;DHT22;8310;44.626;11.176;2023-07-30T04:28:50;25.60;49.70
16402;DHT22;8310;44.626;11.176;2023-07-30T04:31:19;25.70;49.80
16402;DHT22;8310;44.626;11.176;2023-07-30T04:33:46;25.70;49.80
16402;DHT22;8310;44.626;11.176;2023-07-30T04:36:14;25.80;49.90
16402;DHT22;8310;44.626;11.176;2023-07-30T04:38:41;25.80;49.90
16402;DHT22;8310;44.626;11.176;2023-07-30T04:41:09;25.80;50.00
16402;DHT22;8310;44.626;11.176;2023-07-30T04:43:36;25.90;50.10
16402;DHT22;8310;44.626;11.176;2023-07-30T04:46:03;25.90;50.10
16402;DHT22;8310;44.626;11.176;2023-07-30T04:48:32;26.00;50.20
16402;DHT22;8310;44.626;11.176;2023-07-30T04:51:00;26.10;50.40
16402;DHT22;8310;44.626;11.176;2023-07-30T04:53:27;26.10;50.40
16402;DHT22;8310;44.626;11.176;2023-07-30T04:55:55;26.20;50.50
16402;DHT22;8310;44.626;11.176;2023-07-30T04:58:23;26.30;50.60
16402;DHT22;8310;44.626;11.176;2023-07-30T05:00:50;26.40;50.70
16402;DHT22;8310;44.626;11.176;2023-07-30T05:03:17;26.50;50.80
16402;DHT22;8310;44.626;11.176;2023-07-30T05:05:46;26.60;50.90
16402;DHT22;8310;44.626;11.176;2023-07-30T05:08:14;26.70;51.60
16402;DHT22;8310;44.626;11.176;2023-07-30T05:10:44;26.80;51.10
16402;DHT22;8310;44.626;11.176;2023-07-30T05:13:12;26.80;51.10
16402;DHT22;8310;44.626;11.176;2023-07-30T05:15:39;26.90;51.20
16402;DHT22;8310;44.626;11.176;2023-07-30T05:18:07;27.00;51.40
16402;DHT22;8310;44.626;11.176;2023-07-30T05:20:34;27.20;51.50
16402;DHT22;8310;44.626;11.176;2023-07-30T05:23:03;27.30;51.70
16402;DHT22;8310;44.626;11.176;2023-07-30T05:25:30;27.40;51.90
16402;DHT22;8310;44.626;11.176;2023-07-30T05:27:58;27.50;51.90
16402;DHT22;8310;44.626;11.176;2023-07-30T05:30:25;27.70;52.00
16402;DHT22;8310;44.626;11.176;2023-07-30T05:32:52;27.80;52.00
16402;DHT22;8310;44.626;11.176;2023-07-30T05:35:19;27.80;52.00
16402;DHT22;8310;44.626;11.176;2023-07-30T05:37:47;27.90;51.90
16402;DHT22;8310;44.626;11.176;2023-07-30T05:40:15;28.00;51.80
16402;DHT22;8310;44.626;11.176;2023-07-30T05:42:43;28.00;51.70
16402;DHT22;8310;44.626;11.176;2023-07-30T05:45:13;28.10;51.70
16402;DHT22;8310;44.626;11.176;2023-07-30T05:47:41;28.10;51.60
16402;DHT22;8310;44.626;11.176;2023-07-30T05:50:08;28.10;51.60
16402;DHT22;8310;44.626;11.176;2023-07-30T05:52:36;28.10;51.60
16402;DHT22;8310;44.626;11.176;2023-07-30T05:55:03;28.10;51.60
16402;DHT22;8310;44.626;11.176;2023-07-30T05:57:33;28.20;51.70
16402;DHT22;8310;44.626;11.176;2023-07-30T06:00:00;28.20;51.70
16402;DHT22;8310;44.626;11.176;2023-07-30T06:02:27;28.30;51.70
16402;DHT22;8310;44.626;11.176;2023-07-30T06:04:54;28.30;51.70
16402;DHT22;8310;44.626;11.176;2023-07-30T06:07:22;28.40;51.70
16402;DHT22;8310;44.626;11.176;2023-07-30T06:09:49;28.40;51.80
16402;DHT22;8310;44.626;11.176;2023-07-30T06:12:16;28.50;51.90
16402;DHT22;8310;44.626;11.176;2023-07-30T06:14:45;28.60;51.90
16402;DHT22;8310;44.626;11.176;2023-07-30T06:17:13;28.60;51.90
16402;DHT22;8310;44.626;11.176;2023-07-30T06:19:40;28.70;52.00
16402;DHT22;8310;44.626;11.176;2023-07-30T06:22:07;28.70;52.00
16402;DHT22;8310;44.626;11.176;2023-07-30T06:24:35;28.80;52.00
16402;DHT22;8310;44.626;11.176;2023-07-30T06:27:03;28.90;52.00
16402;DHT22;8310;44.626;11.176;2023-07-30T06:29:30;28.90;52.00
16402;DHT22;8310;44.626;11.176;2023-07-30T06:31:58;29.00;52.10
16402;DHT22;8310;44.626;11.176;2023-07-30T06:34:27;29.00;52.10
16402;DHT22;8310;44.626;11.176;2023-07-30T06:36:54;29.10;52.20
16402;DHT22;8310;44.626;11.176;2023-07-30T06:39:22;29.20;52.40
16402;DHT22;8310;44.626;11.176;2023-07-30T06:41:49;29.40;52.40
16402;DHT22;8310;44.626;11.176;2023-07-30T06:44:17;29.50;52.50
16402;DHT22;8310;44.626;11.176;2023-07-30T06:46:44;29.60;52.50
16402;DHT22;8310;44.626;11.176;2023-07-30T06:49:13;29.70;52.50
16402;DHT22;8310;44.626;11.176;2023-07-30T06:51:41;29.70;52.40
16402;DHT22;8310;44.626;11.176;2023-07-30T06:54:08;29.80;52.50
16402;DHT22;8310;44.626;11.176;2023-07-30T06:56:35;29.90;52.50
16402;DHT22;8310;44.626;11.176;2023-07-30T06:59:03;30.00;52.50
16402;DHT22;8310;44.626;11.176;2023-07-30T07:01:30;30.10;52.50
16402;DHT22;8310;44.626;11.176;2023-07-30T07:03:58;30.10;52.40
16402;DHT22;8310;44.626;11.176;2023-07-30T07:06:27;30.20;52.50
16402;DHT22;8310;44.626;11.176;2023-07-30T07:08:54;30.20;52.50
16402;DHT22;8310;44.626;11.176;2023-07-30T07:11:22;30.30;52.60
16402;DHT22;8310;44.626;11.176;2023-07-30T07:13:49;30.30;52.60
16402;DHT22;8310;44.626;11.176;2023-07-30T07:16:16;30.40;52.60
16402;DHT22;8310;44.626;11.176;2023-07-30T07:18:44;30.50;52.70
16402;DHT22;8310;44.626;11.176;2023-07-30T07:21:11;30.60;52.70
16402;DHT22;8310;44.626;11.176;2023-07-30T07:23:40;30.70;52.70
16402;DHT22;8310;44.626;11.176;2023-07-30T07:26:07;30.80;52.70
16402;DHT22;8310;44.626;11.176;2023-07-30T07:28:35;30.90;52.80
16402;DHT22;8310;44.626;11.176;2023-07-30T07:31:03;31.00;52.80
16402;DHT22;8310;44.626;11.176;2023-07-30T07:33:30;31.10;52.90
16402;DHT22;8310;44.626;11.176;2023-07-30T07:36:04;31.20;52.90
16402;DHT22;8310;44.626;11.176;2023-07-30T07:38:31;31.30;53.00
16402;DHT22;8310;44.626;11.176;2023-07-30T07:41:00;31.40;53.00
16402;DHT22;8310;44.626;11.176;2023-07-30T07:43:27;31.50;52.90
16402;DHT22;8310;44.626;11.176;2023-07-30T07:45:54;31.50;52.80
16402;DHT22;8310;44.626;11.176;2023-07-30T07:48:23;31.60;52.90
16402;DHT22;8310;44.626;11.176;2023-07-30T07:50:50;31.60;52.90
16402;DHT22;8310;44.626;11.176;2023-07-30T07:53:18;31.70;53.00
16402;DHT22;8310;44.626;11.176;2023-07-30T07:55:45;31.80;53.00
16402;DHT22;8310;44.626;11.176;2023-07-30T07:58:15;31.80;52.60
16402;DHT22;8310;44.626;11.176;2023-07-30T08:00:42;31.90;52.80
16402;DHT22;8310;44.626;11.176;2023-07-30T08:03:09;32.00;52.90
16402;DHT22;8310;44.626;11.176;2023-07-30T08:05:37;32.00;52.90
16402;DHT22;8310;44.626;11.176;2023-07-30T08:08:04;32.10;53.00
16402;DHT22;8310;44.626;11.176;2023-07-30T08:10:31;32.20;53.10
16402;DHT22;8310;44.626;11.176;2023-07-30T08:12:58;32.30;53.20
16402;DHT22;8310;44.626;11.176;2023-07-30T08:15:27;32.50;53.20
16402;DHT22;8310;44.626;11.176;2023-07-30T08:17:55;32.60;53.20
16402;DHT22;8310;44.626;11.176;2023-07-30T08:20:22;32.60;53.00
16402;DHT22;8310;44.626;11.176;2023-07-30T08:22:49;32.70;53.10
16402;DHT22;8310;44.626;11.176;2023-07-30T08:25:17;32.70;53.00
16402;DHT22;8310;44.626;11.176;2023-07-30T08:27:44;32.70;53.00
16402;DHT22;8310;44.626;11.176;2023-07-30T08:30:12;32.70;53.00
16402;DHT22;8310;44.626;11.176;2023-07-30T08:32:41;32.80;53.10
16402;DHT22;8310;44.626;11.176;2023-07-30T08:35:09;32.90;53.20
16402;DHT22;8310;44.626;11.176;2023-07-30T08:37:36;32.90;53.20
16402;DHT22;8310;44.626;11.176;2023-07-30T08:40:04;33.00;53.10
16402;DHT22;8310;44.626;11.176;2023-07-30T08:42:31;33.10;53.20
16402;DHT22;8310;44.626;11.176;2023-07-30T08:44:59;33.20;53.20
16402;DHT22;8310;44.626;11.176;2023-07-30T08:47:26;33.30;53.20
16402;DHT22;8310;44.626;11.176;2023-07-30T08:49:55;33.30;53.00
16402;DHT22;8310;44.626;11.176;2023-07-30T08:52:23;33.30;53.00
16402;DHT22;8310;44.626;11.176;2023-07-30T08:54:52;33.30;53.10
16402;DHT22;8310;44.626;11.176;2023-07-30T08:57:21;33.40;53.10
16402;DHT22;8310;44.626;11.176;2023-07-30T08:59:49;33.50;53.30
16402;DHT22;8310;44.626;11.176;2023-07-30T09:02:18;33.60;53.40
16402;DHT22;8310;44.626;11.176;2023-07-30T09:04:45;33.70;53.30
16402;DHT22;8310;44.626;11.176;2023-07-30T09:07:16;33.70;53.20
16402;DHT22;8310;44.626;11.176;2023-07-30T09:09:43;33.80;53.10
16402;DHT22;8310;44.626;11.176;2023-07-30T09:12:12;33.90;53.00
16402;DHT22;8310;44.626;11.176;2023-07-30T09:14:40;33.90;52.90
16402;DHT22;8310;44.626;11.176;2023-07-30T09:17:10;33.80;52.90
16402;DHT22;8310;44.626;11.176;2023-07-30T09:19:37;33.90;53.00
16402;DHT22;8310;44.626;11.176;2023-07-30T09:22:05;33.90;53.00
16402;DHT22;8310;44.626;11.176;2023-07-30T09:24:33;33.90;53.20
16402;DHT22;8310;44.626;11.176;2023-07-30T09:27:01;34.00;53.10
16402;DHT22;8310;44.626;11.176;2023-07-30T09:29:29;34.00;53.10
16402;DHT22;8310;44.626;11.176;2023-07-30T09:31:56;34.10;53.20
16402;DHT22;8310;44.626;11.176;2023-07-30T09:34:24;34.20;53.30
16402;DHT22;8310;44.626;11.176;2023-07-30T09:36:54;34.30;53.40
16402;DHT22;8310;44.626;11.176;2023-07-30T09:39:23;34.40;53.30
16402;DHT22;8310;44.626;11.176;2023-07-30T09:42:00;34.40;53.10
16402;DHT22;8310;44.626;11.176;2023-07-30T09:44:31;34.50;53.30
16402;DHT22;8310;44.626;11.176;2023-07-30T09:47:00;34.50;53.30
16402;DHT22;8310;44.626;11.176;2023-07-30T09:49:30;34.60;53.40
16402;DHT22;8310;44.626;11.176;2023-07-30T09:51:58;34.70;53.40
16402;DHT22;8310;44.626;11.176;2023-07-30T09:54:25;34.70;53.10
16402;DHT22;8310;44.626;11.176;2023-07-30T09:56:54;34.70;53.00
16402;DHT22;8310;44.626;11.176;2023-07-30T09:59:21;34.70;53.00
16402;DHT22;8310;44.626;11.176;2023-07-30T10:01:49;34.70;53.00
16402;DHT22;8310;44.626;11.176;2023-07-30T10:04:18;34.80;53.10
16402;DHT22;8310;44.626;11.176;2023-07-30T10:06:48;34.80;53.00
16402;DHT22;8310;44.626;11.176;2023-07-30T10:09:16;34.80;52.90
16402;DHT22;8310;44.626;11.176;2023-07-30T10:11:44;34.70;52.60
16402;DHT22;8310;44.626;11.176;2023-07-30T10:14:13;34.70;52.60
16402;DHT22;8310;44.626;11.176;2023-07-30T10:16:49;34.50;52.50
16402;DHT22;8310;44.626;11.176;2023-07-30T10:19:16;34.50;52.60
16402;DHT22;8310;44.626;11.176;2023-07-30T10:21:46;34.50;52.80
16402;DHT22;8310;44.626;11.176;2023-07-30T10:24:13;34.50;52.80
16402;DHT22;8310;44.626;11.176;2023-07-30T10:26:41;34.60;52.90
16402;DHT22;8310;44.626;11.176;2023-07-30T10:29:14;34.60;52.90
16402;DHT22;8310;44.626;11.176;2023-07-30T10:31:41;34.70;53.00
16402;DHT22;8310;44.626;11.176;2023-07-30T10:34:09;34.80;53.10
16402;DHT22;8310;44.626;11.176;2023-07-30T10:36:41;35.00;53.20
16402;DHT22;8310;44.626;11.176;2023-07-30T10:39:12;35.00;53.10
16402;DHT22;8310;44.626;11.176;2023-07-30T10:41:40;35.20;53.00
16402;DHT22;8310;44.626;11.176;2023-07-30T10:44:07;35.20;53.00
16402;DHT22;8310;44.626;11.176;2023-07-30T10:46:45;35.30;53.00
16402;DHT22;8310;44.626;11.176;2023-07-30T10:49:13;35.40;53.00
16402;DHT22;8310;44.626;11.176;2023-07-30T10:51:40;35.40;53.00
16402;DHT22;8310;44.626;11.176;2023-07-30T10:54:08;35.50;52.90
16402;DHT22;8310;44.626;11.176;2023-07-30T10:56:38;35.60;52.90
16402;DHT22;8310;44.626;11.176;2023-07-30T10:59:05;35.60;52.80
16402;DHT22;8310;44.626;11.176;2023-07-30T11:01:35;35.70;52.80
16402;DHT22;8310;44.626;11.176;2023-07-30T11:04:07;35.80;53.00
16402;DHT22;8310;44.626;11.176;2023-07-30T11:06:34;35.90;53.00
16402;DHT22;8310;44.626;11.176;2023-07-30T11:09:02;36.00;53.10
16402;DHT22;8310;44.626;11.176;2023-07-30T11:11:29;36.10;53.10
16402;DHT22;8310;44.626;11.176;2023-07-30T11:13:57;36.20;53.00
16402;DHT22;8310;44.626;11.176;2023-07-30T11:16:24;36.30;52.70
16402;DHT22;8310;44.626;11.176;2023-07-30T11:18:51;36.20;52.30
16402;DHT22;8310;44.626;11.176;2023-07-30T11:21:20;36.10;52.30
16402;DHT22;8310;44.626;11.176;2023-07-30T11:23:50;36.00;52.30
16402;DHT22;8310;44.626;11.176;2023-07-30T11:26:18;36.00;52.50
16402;DHT22;8310;44.626;11.176;2023-07-30T11:28:46;36.10;52.60
16402;DHT22;8310;44.626;11.176;2023-07-30T11:31:14;36.10;52.60
16402;DHT22;8310;44.626;11.176;2023-07-30T11:33:43;36.20;52.40
16402;DHT22;8310;44.626;11.176;2023-07-30T11:36:12;36.10;52.00
16402;DHT22;8310;44.626;11.176;2023-07-30T11:38:40;35.90;51.90
16402;DHT22;8310;44.626;11.176;2023-07-30T11:41:09;36.00;52.20
16402;DHT22;8310;44.626;11.176;2023-07-30T11:43:37;36.00;52.40
16402;DHT22;8310;44.626;11.176;2023-07-30T11:46:09;36.10;52.60
16402;DHT22;8310;44.626;11.176;2023-07-30T11:48:37;36.30;52.70
16402;DHT22;8310;44.626;11.176;2023-07-30T11:51:04;36.30;52.40
16402;DHT22;8310;44.626;11.176;2023-07-30T11:53:45;36.30;52.30
16402;DHT22;8310;44.626;11.176;2023-07-30T11:56:17;36.40;52.50
16402;DHT22;8310;44.626;11.176;2023-07-30T11:58:45;36.40;52.30
16402;DHT22;8310;44.626;11.176;2023-07-30T12:01:13;36.40;52.20
16402;DHT22;8310;44.626;11.176;2023-07-30T12:03:40;36.40;52.20
16402;DHT22;8310;44.626;11.176;2023-07-30T12:06:09;36.40;52.30
16402;DHT22;8310;44.626;11.176;2023-07-30T12:08:36;36.40;52.30
16402;DHT22;8310;44.626;11.176;2023-07-30T12:11:06;36.50;52.40
16402;DHT22;8310;44.626;11.176;2023-07-30T12:13:34;36.50;52.30
16402;DHT22;8310;44.626;11.176;2023-07-30T12:16:08;36.50;52.30
16402;DHT22;8310;44.626;11.176;2023-07-30T12:18:37;36.60;52.40
16402;DHT22;8310;44.626;11.176;2023-07-30T12:21:04;36.70;52.50
16402;DHT22;8310;44.626;11.176;2023-07-30T12:23:37;36.80;52.50
16402;DHT22;8310;44.626;11.176;2023-07-30T12:26:06;36.90;52.50
16402;DHT22;8310;44.626;11.176;2023-07-30T12:28:33;36.90;52.50
16402;DHT22;8310;44.626;11.176;2023-07-30T12:31:01;37.00;52.40
16402;DHT22;8310;44.626;11.176;2023-07-30T12:33:28;37.10;52.30
16402;DHT22;8310;44.626;11.176;2023-07-30T12:35:56;37.20;52.30
16402;DHT22;8310;44.626;11.176;2023-07-30T12:38:23;37.20;52.30
16402;DHT22;8310;44.626;11.176;2023-07-30T12:40:51;37.20;52.10
16402;DHT22;8310;44.626;11.176;2023-07-30T12:43:20;37.10;51.90
16402;DHT22;8310;44.626;11.176;2023-07-30T12:45:48;37.10;51.90
16402;DHT22;8310;44.626;11.176;2023-07-30T12:48:15;37.10;52.00
16402;DHT22;8310;44.626;11.176;2023-07-30T12:50:42;37.10;51.90
16402;DHT22;8310;44.626;11.176;2023-07-30T12:53:10;37.10;51.80
16402;DHT22;8310;44.626;11.176;2023-07-30T12:55:37;37.00;51.70
16402;DHT22;8310;44.626;11.176;2023-07-30T12:58:04;37.00;51.80
16402;DHT22;8310;44.626;11.176;2023-07-30T13:00:34;37.00;51.70
16402;DHT22;8310;44.626;11.176;2023-07-30T13:03:01;37.00;51.80
16402;DHT22;8310;44.626;11.176;2023-07-30T13:05:28;37.00;51.70
16402;DHT22;8310;44.626;11.176;2023-07-30T13:07:55;36.90;51.50
16402;DHT22;8310;44.626;11.176;2023-07-30T13:10:23;36.90;51.60
16402;DHT22;8310;44.626;11.176;2023-07-30T13:12:50;36.90;51.70
16402;DHT22;8310;44.626;11.176;2023-07-30T13:15:17;37.00;51.90
16402;DHT22;8310;44.626;11.176;2023-07-30T13:17:46;37.10;52.00
16402;DHT22;8310;44.626;11.176;2023-07-30T13:20:14;37.20;52.10
16402;DHT22;8310;44.626;11.176;2023-07-30T13:22:41;37.30;52.00
16402;DHT22;8310;44.626;11.176;2023-07-30T13:25:08;37.50;52.10
16402;DHT22;8310;44.626;11.176;2023-07-30T13:27:35;37.60;52.00
16402;DHT22;8310;44.626;11.176;2023-07-30T13:30:03;37.60;51.90
16402;DHT22;8310;44.626;11.176;2023-07-30T13:32:30;37.70;51.90
16402;DHT22;8310;44.626;11.176;2023-07-30T13:34:59;37.70;51.80
16402;DHT22;8310;44.626;11.176;2023-07-30T13:37:26;37.70;51.70
16402;DHT22;8310;44.626;11.176;2023-07-30T13:39:53;37.60;51.30
16402;DHT22;8310;44.626;11.176;2023-07-30T13:42:20;37.50;51.10
16402;DHT22;8310;44.626;11.176;2023-07-30T13:44:48;37.40;50.90
16402;DHT22;8310;44.626;11.176;2023-07-30T13:47:15;37.20;50.90
16402;DHT22;8310;44.626;11.176;2023-07-30T13:49:42;37.20;51.20
16402;DHT22;8310;44.626;11.176;2023-07-30T13:52:11;37.10;50.90
16402;DHT22;8310;44.626;11.176;2023-07-30T13:54:39;37.10;50.90
16402;DHT22;8310;44.626;11.176;2023-07-30T13:57:07;37.00;50.90
16402;DHT22;8310;44.626;11.176;2023-07-30T13:59:34;37.00;51.00
16402;DHT22;8310;44.626;11.176;2023-07-30T14:02:02;37.00;51.00
16402;DHT22;8310;44.626;11.176;2023-07-30T14:04:29;37.00;51.10
16402;DHT22;8310;44.626;11.176;2023-07-30T14:06:57;37.00;51.10
16402;DHT22;8310;44.626;11.176;2023-07-30T14:09:26;37.10;51.30
16402;DHT22;8310;44.626;11.176;2023-07-30T14:11:58;37.10;51.30
16402;DHT22;8310;44.626;11.176;2023-07-30T14:14:25;37.20;51.30
16402;DHT22;8310;44.626;11.176;2023-07-30T14:16:53;37.20;51.10
16402;DHT22;8310;44.626;11.176;2023-07-30T14:19:21;37.30;51.10
16402;DHT22;8310;44.626;11.176;2023-07-30T14:21:48;37.30;51.20
16402;DHT22;8310;44.626;11.176;2023-07-30T14:24:16;37.30;50.90
16402;DHT22;8310;44.626;11.176;2023-07-30T14:26:45;37.30;51.00
16402;DHT22;8310;44.626;11.176;2023-07-30T14:29:12;37.30;50.90
16402;DHT22;8310;44.626;11.176;2023-07-30T14:31:39;37.30;50.70
16402;DHT22;8310;44.626;11.176;2023-07-30T14:34:08;37.20;50.30
16402;DHT22;8310;44.626;11.176;2023-07-30T14:36:36;37.10;50.20
16402;DHT22;8310;44.626;11.176;2023-07-30T14:39:03;37.00;50.10
16402;DHT22;8310;44.626;11.176;2023-07-30T14:41:30;36.90;50.00
16402;DHT22;8310;44.626;11.176;2023-07-30T14:44:00;36.80;50.30
16402;DHT22;8310;44.626;11.176;2023-07-30T14:46:27;36.80;50.20
16402;DHT22;8310;44.626;11.176;2023-07-30T14:48:54;36.80;50.10
16402;DHT22;8310;44.626;11.176;2023-07-30T14:51:22;36.80;50.20
16402;DHT22;8310;44.626;11.176;2023-07-30T14:53:48;36.80;50.40
16402;DHT22;8310;44.626;11.176;2023-07-30T14:56:16;36.80;50.20
16402;DHT22;8310;44.626;11.176;2023-07-30T14:58:43;36.70;49.80
16402;DHT22;8310;44.626;11.176;2023-07-30T15:01:12;36.60;49.80
16402;DHT22;8310;44.626;11.176;2023-07-30T15:03:40;36.50;49.80
16402;DHT22;8310;44.626;11.176;2023-07-30T15:06:07;36.50;49.60
16402;DHT22;8310;44.626;11.176;2023-07-30T15:08:35;36.40;49.60
16402;DHT22;8310;44.626;11.176;2023-07-30T15:11:03;36.30;49.70
16402;DHT22;8310;44.626;11.176;2023-07-30T15:13:31;36.30;49.90
16402;DHT22;8310;44.626;11.176;2023-07-30T15:15:58;36.40;50.10
16402;DHT22;8310;44.626;11.176;2023-07-30T15:18:27;36.40;50.30
16402;DHT22;8310;44.626;11.176;2023-07-30T15:20:54;36.60;50.50
16402;DHT22;8310;44.626;11.176;2023-07-30T15:23:21;36.60;50.30
16402;DHT22;8310;44.626;11.176;2023-07-30T15:25:49;36.70;50.30
16402;DHT22;8310;44.626;11.176;2023-07-30T15:28:16;36.70;50.20
16402;DHT22;8310;44.626;11.176;2023-07-30T15:30:44;36.70;50.10
16402;DHT22;8310;44.626;11.176;2023-07-30T15:33:11;36.60;50.20